Aérodrome :
LOGIN :

S'inscrire | Disclaimer

   EN    FR    IT 

 










Légende :    VFR   VFR Marginal   IFR   IFR Intensif   IFR Très Intensif
Visi : 
Plafond : 
>= 8 km
>= 3000ft
5 à 8 km
1000 à 3000 ft
1500m à 5 km
500 à 1000 ft
800 à 1500m
200 à 500 ft
< 800m
< 200 ft
Symboles :   Orages  Brouillard  Fortes neiges  Fortes précipitations  Vent > 20 kt
SIGMETs :   Divers  Orages  Givrage  Turbulence  Onde Orograph.  Cendres Volcan.







- Altitude de l'aérodrome : 538 ft
- Code IATA : TNF
- Voir les cartes d'approche


LFPN - Toussus Le Noble

DERNIER METAR :
  • 211130Z AUTO VRB03KT 9999 FEW043 26/13 Q1014 NOSIG

METARs EXPIRÉS :
  • 211100Z AUTO 19005KT 090V230 9999 FEW039 25/13 Q1014 NOSIG
  • 211030Z AUTO 24006KT 180V290 9999 FEW037 24/13 Q1014 NOSIG
  • 211000Z AUTO VRB04KT CAVOK 23/13 Q1014 NOSIG
  • 210930Z AUTO VRB02KT 9999 FEW030 22/13 Q1014 NOSIG
  • 210900Z AUTO 27004KT 210V320 CAVOK 22/14 Q1014 NOSIG

TAF TAF LFPN
Valide du 21 à 09h jusqu'au 21 à 18h UTC


210800Z 2109/2118 28005KT CAVOK
ATIS : +33 1 39 56 54 70
Pas de NOTAMs connus pour ce terrain.



MET'MAP, la Météo Aéronautique d'un coup d'oeil ! - Copyright ORBIFLY Décembre 2007 - Disclaimer

ORBIFLY MET'MAP TEAM :

Programmation & Développement : Alexandra Zaïnal
Conception & Développement : Baudouin d'Aumeries
Co-Programmation & Développement : Marc-Olivier Méhu
Soutien technique & logistique : Manuel Goepfert

Contact : metmap@orbifly.com




SOURCES & CREDITS :

   NOAA